createdAt,value
2023-04-19T00:01:03.367Z,91.01
2023-04-19T00:03:31.842Z,91.14
2023-04-19T00:05:59.408Z,91.19
2023-04-19T00:08:26.906Z,91.46
2023-04-19T00:10:54.113Z,91.26
2023-04-19T00:13:22.021Z,90.94
2023-04-19T00:15:49.237Z,90.95
2023-04-19T00:18:16.608Z,90.83
2023-04-19T00:20:44.657Z,91.17
2023-04-19T00:23:12.137Z,90.75
2023-04-19T00:25:39.225Z,90.77
2023-04-19T00:28:06.597Z,91.09
2023-04-19T00:30:33.811Z,90.99
2023-04-19T00:33:01.434Z,90.53
2023-04-19T00:35:28.500Z,90.50
2023-04-19T00:37:55.646Z,90.82
2023-04-19T00:40:23.127Z,90.56
2023-04-19T00:42:50.872Z,90.43
2023-04-19T00:45:19.528Z,90.47
2023-04-19T00:47:46.630Z,90.58
2023-04-19T00:50:14.352Z,90.42
2023-04-19T00:52:42.189Z,90.56
2023-04-19T00:55:10.300Z,90.58
2023-04-19T00:57:38.005Z,90.75
2023-04-19T01:00:10.177Z,90.39
2023-04-19T01:02:37.363Z,90.41
2023-04-19T01:05:05.171Z,90.45
2023-04-19T01:07:34.626Z,90.70
2023-04-19T01:10:02.270Z,90.43
2023-04-19T01:12:29.527Z,90.77
2023-04-19T01:14:56.981Z,90.22
2023-04-19T01:17:24.036Z,90.37
2023-04-19T01:19:59.618Z,90.54
2023-04-19T01:22:26.622Z,90.25
2023-04-19T01:24:54.257Z,90.43
2023-04-19T01:27:21.446Z,90.46
2023-04-19T01:29:48.882Z,90.12
2023-04-19T01:32:15.948Z,90.17
2023-04-19T01:34:43.503Z,90.37
2023-04-19T01:37:10.552Z,90.83
2023-04-19T01:39:37.901Z,90.63
2023-04-19T01:42:05.002Z,90.64
2023-04-19T01:44:32.570Z,90.83
2023-04-19T01:46:59.613Z,90.76
2023-04-19T01:49:27.010Z,90.70
2023-04-19T01:51:54.127Z,90.79
2023-04-19T01:54:21.587Z,90.96
2023-04-19T01:56:48.621Z,90.71
2023-04-19T01:59:16.550Z,90.80
2023-04-19T02:01:43.591Z,90.92
2023-04-19T02:04:11.061Z,90.73
2023-04-19T02:06:38.186Z,90.88
2023-04-19T02:09:05.512Z,91.11
2023-04-19T02:11:32.608Z,91.10
2023-04-19T02:14:00.137Z,91.42
2023-04-19T02:16:27.244Z,91.53
2023-04-19T02:18:54.711Z,91.49
2023-04-19T02:21:21.752Z,91.94
2023-04-19T02:23:49.118Z,91.91
2023-04-19T02:26:16.113Z,91.98
2023-04-19T02:28:44.431Z,92.45
2023-04-19T02:31:11.690Z,92.33
2023-04-19T02:33:39.183Z,92.22
2023-04-19T02:36:06.723Z,92.44
2023-04-19T02:38:34.143Z,92.67
2023-04-19T02:41:04.525Z,92.81
2023-04-19T02:43:31.928Z,93.03
2023-04-19T02:45:59.184Z,93.47
2023-04-19T02:48:26.995Z,93.59
2023-04-19T02:50:54.162Z,93.88
2023-04-19T02:53:21.533Z,93.73
2023-04-19T02:55:48.498Z,93.61
2023-04-19T02:58:15.869Z,93.64
2023-04-19T03:00:42.965Z,94.09
2023-04-19T03:03:10.725Z,94.41
2023-04-19T03:05:37.856Z,94.18
2023-04-19T03:08:05.405Z,94.34
2023-04-19T03:10:32.433Z,94.19
2023-04-19T03:12:59.790Z,94.25
2023-04-19T03:15:27.033Z,94.73
2023-04-19T03:17:54.616Z,94.55
2023-04-19T03:20:21.757Z,94.58
2023-04-19T03:22:49.436Z,94.64
2023-04-19T03:25:17.665Z,94.58
2023-04-19T03:27:45.794Z,94.62
2023-04-19T03:30:13.529Z,94.99
2023-04-19T03:32:40.884Z,95.01
2023-04-19T03:35:09.720Z,94.97
2023-04-19T03:37:37.123Z,94.75
2023-04-19T03:40:04.920Z,94.76
2023-04-19T03:42:32.333Z,94.55
2023-04-19T03:44:59.406Z,94.56
2023-04-19T03:47:26.870Z,94.35
2023-04-19T03:49:53.920Z,94.30
2023-04-19T03:52:21.206Z,94.65
2023-04-19T03:54:48.191Z,94.44
2023-04-19T03:57:18.002Z,94.80
2023-04-19T03:59:45.197Z,94.29
2023-04-19T04:02:31.022Z,94.49
2023-04-19T04:05:04.456Z,94.15
2023-04-19T04:07:31.908Z,94.34
2023-04-19T04:09:59.333Z,94.48
2023-04-19T04:12:26.862Z,94.19
2023-04-19T04:14:54.441Z,94.55
2023-04-19T04:17:22.366Z,94.64
2023-04-19T04:19:49.482Z,94.44
2023-04-19T04:22:17.292Z,93.88
2023-04-19T04:24:44.515Z,94.17
2023-04-19T04:27:11.957Z,93.35
2023-04-19T04:29:42.054Z,93.54
2023-04-19T04:32:10.813Z,93.99
2023-04-19T04:34:43.159Z,93.97
2023-04-19T04:37:25.207Z,93.96
2023-04-19T04:39:54.311Z,93.88
2023-04-19T04:42:21.957Z,93.17
2023-04-19T04:47:33.353Z,93.03
2023-04-19T04:50:00.964Z,93.20
2023-04-19T04:52:28.707Z,93.21
2023-04-19T04:54:57.167Z,93.37
2023-04-19T04:57:24.740Z,93.56
2023-04-19T04:59:51.925Z,93.79
2023-04-19T05:02:20.467Z,94.07
2023-04-19T05:04:55.592Z,94.05
2023-04-19T05:07:37.614Z,93.37
2023-04-19T05:10:05.431Z,93.71
2023-04-19T05:12:34.727Z,93.48
2023-04-19T05:15:03.069Z,93.39
2023-04-19T05:17:32.142Z,93.31
2023-04-19T05:20:14.939Z,93.12
2023-04-19T05:22:42.302Z,92.49
2023-04-19T05:25:10.721Z,92.58
2023-04-19T05:27:37.763Z,92.42
2023-04-19T05:30:06.770Z,92.32
2023-04-19T05:32:34.006Z,92.77
2023-04-19T05:35:01.667Z,92.50
2023-04-19T05:37:28.923Z,92.48
2023-04-19T05:39:59.776Z,92.06
2023-04-19T05:42:28.863Z,91.42
2023-04-19T05:44:58.890Z,91.11
2023-04-19T05:47:27.466Z,90.08
2023-04-19T05:49:56.438Z,89.23
2023-04-19T05:52:23.645Z,89.98
2023-04-19T05:54:51.068Z,89.46
2023-04-19T05:57:18.156Z,88.79
2023-04-19T05:59:45.593Z,88.77
2023-04-19T06:02:12.700Z,87.94
2023-04-19T06:04:41.614Z,86.88
2023-04-19T06:07:17.779Z,85.57
2023-04-19T06:09:56.903Z,83.57
2023-04-19T06:12:24.150Z,83.59
2023-04-19T06:14:52.283Z,82.60
2023-04-19T06:17:24.622Z,82.01
2023-04-19T06:19:53.004Z,81.91
2023-04-19T06:22:23.845Z,78.08
2023-04-19T06:24:52.539Z,79.13
2023-04-19T06:27:23.737Z,79.37
2023-04-19T06:29:51.406Z,79.80
2023-04-19T06:32:18.659Z,78.88
2023-04-19T06:34:46.080Z,79.53
2023-04-19T06:37:13.283Z,78.83
2023-04-19T06:42:43.486Z,78.18
2023-04-19T06:45:25.803Z,80.12
2023-04-19T06:47:59.507Z,79.04
2023-04-19T06:53:12.563Z,78.24
2023-04-19T06:55:40.206Z,77.79
2023-04-19T06:58:10.977Z,77.45
2023-04-19T07:00:38.219Z,77.44
2023-04-19T07:03:05.890Z,76.75
2023-04-19T07:05:33.502Z,74.59
2023-04-19T07:08:01.599Z,75.84
2023-04-19T07:10:29.221Z,75.92
2023-04-19T07:13:02.767Z,74.24
2023-04-19T07:15:29.805Z,74.36
2023-04-19T07:17:57.209Z,74.88
2023-04-19T07:20:24.385Z,74.54
2023-04-19T07:22:51.982Z,74.90
2023-04-19T07:25:19.173Z,75.13
2023-04-19T07:27:55.630Z,73.52
2023-04-19T07:30:22.784Z,73.78
2023-04-19T07:32:52.015Z,72.96
2023-04-19T07:35:19.567Z,71.88
2023-04-19T07:37:47.088Z,72.89
2023-04-19T07:40:14.805Z,72.50
2023-04-19T07:42:43.365Z,72.59
2023-04-19T07:48:12.641Z,72.98
2023-04-19T07:50:39.793Z,71.93
2023-04-19T07:53:07.245Z,70.12
2023-04-19T07:55:34.473Z,70.39
2023-04-19T07:58:02.922Z,68.84
2023-04-19T08:00:34.995Z,67.64
2023-04-19T08:03:04.288Z,66.74
2023-04-19T08:05:32.115Z,68.68
2023-04-19T08:08:03.111Z,69.70
2023-04-19T08:10:38.432Z,69.32
2023-04-19T08:13:08.930Z,69.93
2023-04-19T08:16:18.186Z,68.70
2023-04-19T08:18:25.667Z,67.82
2023-04-19T08:20:53.639Z,66.80
2023-04-19T08:23:27.431Z,66.16
2023-04-19T08:25:59.069Z,66.17
2023-04-19T08:28:26.671Z,66.85
2023-04-19T08:30:54.942Z,66.58
2023-04-19T08:33:22.591Z,67.26
2023-04-19T08:35:49.766Z,67.32
2023-04-19T08:41:01.596Z,68.80
2023-04-19T08:43:33.469Z,68.83
2023-04-19T08:46:05.717Z,69.16
2023-04-19T08:48:37.446Z,69.59
2023-04-19T08:54:05.586Z,69.48
2023-04-19T08:56:35.700Z,69.47
2023-04-19T08:59:17.655Z,69.33
2023-04-19T09:01:46.874Z,69.19
2023-04-19T09:04:27.076Z,69.74
2023-04-19T09:07:01.741Z,69.67
2023-04-19T09:12:02.842Z,68.09
2023-04-19T09:14:30.296Z,66.91
2023-04-19T09:17:15.887Z,65.08
2023-04-19T09:19:50.034Z,62.62
2023-04-19T09:23:03.943Z,61.44
2023-04-19T09:25:49.178Z,60.66
2023-04-19T09:28:18.303Z,61.28
2023-04-19T09:30:59.796Z,62.46
2023-04-19T09:33:35.148Z,63.49
2023-04-19T09:36:03.329Z,64.19
2023-04-19T09:38:30.447Z,64.47
2023-04-19T09:41:11.347Z,64.82
2023-04-19T09:43:58.824Z,64.82
2023-04-19T09:46:37.387Z,65.55
2023-04-19T09:49:21.666Z,66.32
2023-04-19T09:51:58.243Z,66.88
2023-04-19T09:54:30.297Z,67.32
2023-04-19T09:57:01.848Z,67.59
2023-04-19T09:59:29.096Z,67.46
2023-04-19T10:05:26.691Z,67.95
2023-04-19T10:07:59.954Z,68.60
2023-04-19T10:13:18.103Z,68.93
2023-04-19T10:15:52.423Z,69.09
2023-04-19T10:18:24.388Z,68.54
2023-04-19T10:21:16.444Z,69.01
2023-04-19T10:23:44.741Z,68.86
2023-04-19T10:26:11.783Z,68.83
2023-04-19T10:28:42.352Z,69.05
2023-04-19T10:31:17.333Z,69.32
2023-04-19T10:33:45.181Z,69.66
2023-04-19T10:36:18.973Z,69.87
2023-04-19T10:38:52.497Z,70.58
2023-04-19T10:41:20.031Z,70.45
2023-04-19T10:44:12.345Z,70.63
2023-04-19T10:46:42.819Z,70.36
2023-04-19T10:49:13.561Z,70.32
2023-04-19T10:51:47.850Z,69.93
2023-04-19T10:54:27.504Z,69.63
2023-04-19T10:57:12.841Z,69.46
2023-04-19T10:59:43.001Z,69.37
2023-04-19T11:02:22.113Z,68.94
2023-04-19T11:04:50.010Z,68.29
2023-04-19T11:07:31.245Z,67.76
2023-04-19T11:13:23.415Z,65.47
2023-04-19T11:15:50.451Z,64.77
2023-04-19T11:18:19.642Z,63.81
2023-04-19T11:20:53.729Z,63.73
2023-04-19T11:23:21.248Z,62.68
2023-04-19T11:25:51.836Z,62.16
2023-04-19T11:28:23.323Z,61.01
2023-04-19T11:30:56.440Z,60.80
2023-04-19T11:33:25.872Z,60.09
2023-04-19T11:35:53.000Z,59.97
2023-04-19T11:38:20.567Z,60.36
2023-04-19T11:40:47.688Z,61.08
2023-04-19T11:43:15.441Z,62.34
2023-04-19T11:45:51.555Z,62.51
2023-04-19T11:48:19.235Z,62.53
2023-04-19T11:50:49.604Z,62.05
2023-04-19T11:53:27.906Z,62.72
2023-04-19T11:56:06.305Z,63.30
2023-04-19T12:01:32.459Z,64.17
2023-04-19T12:03:59.684Z,64.26
2023-04-19T12:06:34.518Z,64.91
2023-04-19T12:09:08.924Z,64.79
2023-04-19T12:11:44.820Z,65.04
2023-04-19T12:14:23.200Z,65.07
2023-04-19T12:17:10.677Z,65.09
2023-04-19T12:19:46.394Z,65.20
2023-04-19T12:22:20.545Z,65.27
2023-04-19T12:24:47.703Z,65.04
2023-04-19T12:27:18.066Z,64.74
2023-04-19T12:29:46.195Z,65.52
2023-04-19T12:32:18.488Z,65.80
2023-04-19T12:34:46.826Z,65.76
2023-04-19T12:37:18.639Z,66.33
2023-04-19T12:39:46.787Z,65.37
2023-04-19T12:42:21.346Z,66.58
2023-04-19T12:44:48.518Z,66.95
2023-04-19T12:47:16.084Z,68.01
2023-04-19T12:49:43.610Z,68.19
2023-04-19T12:52:20.252Z,69.32
2023-04-19T12:54:49.984Z,70.74
2023-04-19T12:57:31.920Z,71.70
2023-04-19T12:59:59.374Z,72.04
2023-04-19T13:02:26.482Z,71.92
2023-04-19T13:04:54.410Z,72.82
2023-04-19T13:07:24.568Z,74.17
2023-04-19T13:09:54.341Z,74.75
2023-04-19T13:12:32.647Z,75.07
2023-04-19T13:15:02.628Z,76.13
2023-04-19T13:17:32.872Z,77.22
2023-04-19T13:20:00.449Z,77.35
2023-04-19T13:22:27.569Z,78.51
2023-04-19T13:24:54.959Z,78.86
2023-04-19T13:27:22.063Z,79.13
2023-04-19T13:29:49.514Z,79.52
2023-04-19T13:32:16.582Z,80.30
2023-04-19T13:37:24.862Z,80.68
2023-04-19T13:40:17.392Z,80.83
2023-04-19T13:42:45.567Z,81.27
2023-04-19T13:45:13.609Z,81.80
2023-04-19T13:47:48.143Z,82.22
2023-04-19T13:50:16.014Z,82.98
2023-04-19T13:52:43.034Z,83.01
2023-04-19T13:55:10.481Z,84.30
2023-04-19T13:57:37.713Z,84.44
2023-04-19T14:00:06.023Z,85.96
2023-04-19T14:02:34.087Z,85.81
2023-04-19T14:05:04.020Z,86.66
2023-04-19T14:07:31.090Z,86.24
2023-04-19T14:10:00.666Z,85.61
2023-04-19T14:12:27.812Z,85.47
2023-04-19T14:14:57.259Z,86.32
2023-04-19T14:17:29.634Z,87.31
2023-04-19T14:19:59.682Z,88.51
2023-04-19T14:22:29.179Z,88.70
2023-04-19T14:24:57.532Z,89.56
2023-04-19T14:27:26.715Z,89.51
2023-04-19T14:29:56.351Z,90.06
2023-04-19T14:32:27.051Z,89.89
2023-04-19T14:34:57.940Z,90.04
2023-04-19T14:37:30.933Z,90.01
2023-04-19T14:39:59.565Z,89.70
2023-04-19T14:42:27.032Z,89.85
2023-04-19T14:44:56.073Z,90.28
2023-04-19T14:47:28.392Z,89.95
2023-04-19T14:49:56.361Z,89.91
2023-04-19T14:52:25.105Z,89.77
2023-04-19T14:54:54.105Z,90.04
2023-04-19T14:57:21.154Z,90.44
2023-04-19T14:59:48.588Z,90.44
2023-04-19T15:02:16.078Z,90.50
2023-04-19T15:04:50.477Z,90.28
2023-04-19T15:07:18.995Z,91.18
2023-04-19T15:09:46.678Z,91.31
2023-04-19T15:12:14.851Z,91.77
2023-04-19T15:14:48.421Z,92.07
2023-04-19T15:17:18.646Z,92.64
2023-04-19T15:19:48.174Z,91.46
2023-04-19T15:22:15.426Z,91.39
2023-04-19T15:24:43.929Z,91.65
2023-04-19T15:27:13.749Z,91.53
2023-04-19T15:29:42.496Z,92.06
2023-04-19T15:32:10.949Z,91.91
2023-04-19T15:34:41.304Z,92.73
2023-04-19T15:37:08.830Z,92.88
2023-04-19T15:39:36.511Z,93.38
2023-04-19T15:42:06.307Z,93.43
2023-04-19T15:44:33.673Z,93.34
2023-04-19T15:47:01.096Z,93.58
2023-04-19T15:49:28.742Z,93.53
2023-04-19T15:51:55.826Z,94.29
2023-04-19T15:54:23.519Z,94.60
2023-04-19T15:56:50.847Z,94.28
2023-04-19T15:59:18.511Z,94.23
2023-04-19T16:01:46.018Z,93.92
2023-04-19T16:04:13.901Z,94.28
2023-04-19T16:06:41.151Z,93.93
2023-04-19T16:09:12.867Z,94.16
2023-04-19T16:11:55.702Z,93.97
2023-04-19T16:14:24.006Z,94.40
2023-04-19T16:16:56.504Z,94.15
2023-04-19T16:19:25.551Z,93.51
2023-04-19T16:21:54.060Z,93.60
2023-04-19T16:24:22.848Z,93.08
2023-04-19T16:29:48.661Z,93.26
2023-04-19T16:32:18.053Z,92.83
2023-04-19T16:34:53.732Z,93.03
2023-04-19T16:37:21.428Z,93.09
2023-04-19T16:39:48.401Z,93.38
2023-04-19T16:42:16.006Z,93.48
2023-04-19T16:44:45.215Z,93.76
2023-04-19T16:47:12.503Z,93.98
2023-04-19T16:49:39.663Z,94.27
2023-04-19T16:52:09.340Z,94.00
2023-04-19T16:54:36.846Z,94.49
2023-04-19T16:57:04.759Z,94.27
2023-04-19T16:59:32.338Z,94.63
2023-04-19T17:02:04.983Z,94.94
2023-04-19T17:04:37.828Z,95.08
2023-04-19T17:07:06.138Z,95.50
2023-04-19T17:09:33.325Z,95.79
2023-04-19T17:12:02.104Z,95.71
2023-04-19T17:14:29.993Z,96.14
2023-04-19T17:16:57.460Z,96.17
2023-04-19T17:19:24.565Z,95.91
2023-04-19T17:21:52.031Z,95.98
2023-04-19T17:24:19.097Z,96.20
2023-04-19T17:26:46.601Z,96.55
2023-04-19T17:29:13.624Z,96.49
2023-04-19T17:31:41.139Z,96.23
2023-04-19T17:34:08.235Z,96.53
2023-04-19T17:36:35.681Z,96.57
2023-04-19T17:39:07.723Z,96.92
2023-04-19T17:41:35.706Z,96.44
2023-04-19T17:44:03.258Z,96.59
2023-04-19T17:49:20.252Z,97.13
2023-04-19T17:51:48.548Z,97.17
2023-04-19T17:54:21.999Z,96.97
2023-04-19T17:56:52.756Z,97.48
2023-04-19T17:59:20.361Z,97.51
2023-04-19T18:01:47.994Z,97.73
2023-04-19T18:04:18.118Z,97.64
2023-04-19T18:06:51.559Z,97.92
2023-04-19T18:09:21.511Z,98.15
2023-04-19T18:11:49.162Z,98.10
2023-04-19T18:17:55.564Z,98.47
2023-04-19T18:20:25.925Z,98.12
2023-04-19T18:22:53.500Z,98.11
2023-04-19T18:25:20.835Z,98.09
2023-04-19T18:27:53.539Z,98.22
2023-04-19T18:30:37.664Z,98.42
2023-04-19T18:33:08.320Z,98.41
2023-04-19T18:35:41.385Z,98.21
2023-04-19T18:38:20.579Z,98.22
2023-04-19T18:40:58.428Z,97.96
2023-04-19T18:43:26.648Z,98.25
2023-04-19T18:45:58.453Z,98.09
2023-04-19T18:48:34.666Z,97.91
2023-04-19T18:51:11.543Z,98.04
2023-04-19T18:53:39.826Z,97.90
2023-04-19T18:56:11.886Z,98.12
2023-04-19T18:58:39.491Z,97.97
2023-04-19T19:01:08.180Z,97.66
2023-04-19T19:06:10.911Z,97.81
2023-04-19T19:08:44.589Z,98.29
2023-04-19T19:11:37.166Z,98.09
2023-04-19T19:14:12.215Z,98.12
2023-04-19T19:16:51.299Z,98.53
2023-04-19T19:19:20.779Z,98.56
2023-04-19T19:21:48.544Z,98.61
2023-04-19T19:24:15.705Z,98.71
2023-04-19T19:26:43.350Z,98.55
2023-04-19T19:29:11.601Z,98.54
2023-04-19T19:31:41.759Z,98.27
2023-04-19T19:34:25.455Z,98.57
2023-04-19T19:36:54.824Z,98.69
2023-04-19T19:39:22.276Z,98.54
2023-04-19T19:44:21.768Z,98.54
2023-04-19T19:46:49.156Z,98.55
2023-04-19T19:49:16.395Z,99.23
2023-04-19T19:51:57.647Z,99.12
2023-04-19T19:54:26.201Z,99.47
2023-04-19T19:59:29.873Z,99.54
2023-04-19T20:01:58.765Z,99.80
2023-04-19T20:04:26.206Z,99.93
2023-04-19T20:09:27.863Z,99.69
2023-04-19T20:11:55.497Z,99.90
2023-04-19T20:14:24.182Z,100.00
2023-04-19T20:16:52.431Z,99.74
2023-04-19T20:19:20.209Z,100.00
2023-04-19T20:21:47.575Z,100.00
2023-04-19T20:24:14.528Z,100.00
2023-04-19T20:26:41.971Z,100.00
2023-04-19T20:29:08.987Z,100.00
2023-04-19T20:31:36.298Z,100.00
2023-04-19T20:34:03.927Z,100.00
2023-04-19T20:36:31.876Z,100.00
2023-04-19T20:39:01.911Z,100.00
2023-04-19T20:41:31.620Z,99.92
2023-04-19T20:43:59.944Z,99.96
2023-04-19T20:46:27.833Z,100.00
2023-04-19T20:48:54.961Z,100.00
2023-04-19T20:51:22.416Z,100.00
2023-04-19T20:53:49.426Z,100.00
2023-04-19T20:56:16.939Z,100.00
2023-04-19T20:58:45.348Z,100.00
2023-04-19T21:01:17.347Z,100.00
2023-04-19T21:03:46.296Z,100.00
2023-04-19T21:06:13.983Z,100.00
2023-04-19T21:08:41.210Z,100.00
2023-04-19T21:11:08.888Z,100.00
2023-04-19T21:13:35.918Z,100.00
2023-04-19T21:16:03.367Z,100.00
2023-04-19T21:18:31.014Z,100.00
2023-04-19T21:20:58.556Z,100.00
2023-04-19T21:23:25.617Z,100.00
2023-04-19T21:25:53.284Z,100.00
2023-04-19T21:28:20.997Z,100.00
2023-04-19T21:30:48.388Z,100.00
2023-04-19T21:33:18.140Z,100.00
2023-04-19T21:35:45.507Z,100.00
2023-04-19T21:38:15.894Z,100.00
2023-04-19T21:40:43.549Z,100.00
2023-04-19T21:43:12.053Z,100.00
2023-04-19T21:45:39.498Z,100.00
2023-04-19T21:48:09.544Z,100.00
2023-04-19T21:50:38.182Z,100.00
2023-04-19T21:53:08.976Z,100.00
2023-04-19T21:55:36.712Z,100.00
2023-04-19T21:58:03.713Z,100.00
2023-04-19T22:00:31.110Z,100.00
2023-04-19T22:02:58.337Z,100.00
2023-04-19T22:05:26.345Z,100.00
2023-04-19T22:07:53.499Z,100.00
2023-04-19T22:10:22.715Z,100.00
2023-04-19T22:12:57.779Z,100.00
2023-04-19T22:15:26.787Z,100.00
2023-04-19T22:17:53.916Z,100.00
2023-04-19T22:20:21.393Z,100.00
2023-04-19T22:22:48.410Z,100.00
2023-04-19T22:25:16.054Z,100.00
2023-04-19T22:27:43.514Z,100.00
2023-04-19T22:30:12.313Z,100.00
2023-04-19T22:32:39.407Z,99.85
2023-04-19T22:35:08.069Z,100.00
2023-04-19T22:37:35.130Z,100.00
2023-04-19T22:40:02.593Z,99.64
2023-04-19T22:42:29.576Z,99.41
2023-04-19T22:44:56.873Z,98.98
2023-04-19T22:47:23.902Z,98.75
2023-04-19T22:49:53.862Z,98.55
2023-04-19T22:52:24.093Z,98.78
2023-04-19T22:54:52.134Z,98.89
2023-04-19T22:57:19.173Z,99.21
2023-04-19T22:59:47.840Z,99.22
2023-04-19T23:02:14.824Z,99.61
2023-04-19T23:04:45.246Z,98.86
2023-04-19T23:07:13.466Z,98.44
2023-04-19T23:09:41.757Z,99.03
2023-04-19T23:12:09.125Z,98.73
2023-04-19T23:14:38.799Z,99.11
2023-04-19T23:17:06.178Z,99.05
2023-04-19T23:19:33.609Z,99.22
2023-04-19T23:22:00.580Z,99.46
2023-04-19T23:24:27.912Z,99.91
2023-04-19T23:26:55.281Z,100.00
2023-04-19T23:29:22.621Z,100.00
2023-04-19T23:31:49.597Z,100.00
2023-04-19T23:34:17.554Z,100.00
2023-04-19T23:36:44.613Z,100.00
2023-04-19T23:39:12.243Z,100.00
2023-04-19T23:41:39.594Z,100.00
2023-04-19T23:44:07.022Z,100.00
2023-04-19T23:46:34.110Z,100.00
2023-04-19T23:49:01.477Z,100.00
2023-04-19T23:51:28.518Z,100.00
2023-04-19T23:53:55.938Z,100.00
2023-04-19T23:56:22.894Z,100.00
2023-04-19T23:58:50.290Z,100.00
